Altmar, NY

5:16 AM EST on November 22, 2014 (GMT -0500)
Watertown International | Change Station
CLOSE
Current Station
Airport
Location: Watertown,
Elevation: 325 ft
Nearby Weather Stations

Elev 325 ft 43.99 °N, 76.03 °W | Updated 20 minutes ago

Mostly Cloudy
Mostly Cloudy
28 °F
Feels Like 18 °F
N
13
Wind Variable Wind from South
Gusts 24 mph

Today
High -- | Low -- °F
--% Chance of Precip.
Yesterday
High -- | Low -- °F
Precip. -- in
7:06 AM 4:33 PM
Waning Crescent, 0% visible
Pressure 30.31 in
Visibility 10.0 miles
Clouds Overcast 2400 ft
Windchill 18 °F
Dew Point 14 °F
Humidity 56%
Rainfall 0.00 in
Snow Depth Not available.
UV 0 out of 12
Pollen .10 out of 12
Air Quality Not available.
Flu Activity Not available.
METAR KART 220956Z AUTO 19011G21KT 10SM OVC024 M02/M10 A3029 RMK AO2 SLP262 T10221100

More Conditions Fewer Conditions

Pressure 30.31 in
Visibility 10.0 miles
Clouds Overcast 2400 ft
Windchill 18 °F
Dew Point 14 °F
Humidity 56%
Rainfall 0.00 in
Snow Depth Not available.
UV 0 out of 12
Pollen .10 out of 12
Air Quality Not available.
Flu Activity Not available.
METAR KART 220956Z AUTO 19011G21KT 10SM OVC024 M02/M10 A3029 RMK AO2 SLP262 T10221100

More Conditions Fewer Conditions

10-Day Weather Forecast

Almanac

Astronomy

Nov. 22, 2014 Rise Set
Actual Time
Civil Twilight
Nautical Twilight
Astronomical Twilight
Moon
Length of Visible Light
Length of Day
Tomorrow will be .
, % of the Moon is Illuminated

Today's Extremes

State Highs State Lows

Community

WunderPhotos

Upload Photos

1,772,799 photos uploaded!

WunderBlogs® & News

Nearby

Air Quality

  Air Quality AQ Index Pollutant
Not available.

Snow Depth

Station Depth Elevation

Earthquake Activity

City Distance Mag. Time & Date
Minimum magnitude displayed is 2.5.

Coastal Water Temperatures

Place Temperature

Nearby Weather Stations